createdAt,value
2018-06-20T00:00:49.143Z,21.20
2018-06-20T00:03:16.666Z,21.20
2018-06-20T00:05:44.161Z,21.10
2018-06-20T00:08:11.673Z,21.10
2018-06-20T00:10:39.190Z,21.00
2018-06-20T00:13:06.733Z,21.10
2018-06-20T00:15:34.249Z,21.00
2018-06-20T00:18:01.710Z,21.00
2018-06-20T00:20:29.180Z,21.00
2018-06-20T00:22:56.691Z,21.00
2018-06-20T00:25:24.154Z,20.90
2018-06-20T00:27:51.621Z,20.90
2018-06-20T00:30:19.174Z,20.80
2018-06-20T00:32:46.645Z,20.80
2018-06-20T00:35:14.149Z,20.80
2018-06-20T00:37:41.651Z,20.80
2018-06-20T00:40:09.206Z,20.80
2018-06-20T00:42:36.666Z,20.80
2018-06-20T00:45:04.185Z,20.80
2018-06-20T00:47:31.701Z,20.60
2018-06-20T00:49:59.202Z,20.60
2018-06-20T00:52:26.669Z,20.60
2018-06-20T00:54:54.170Z,20.60
2018-06-20T00:57:21.648Z,20.60
2018-06-20T00:59:49.186Z,20.60
2018-06-20T01:02:16.674Z,20.60
2018-06-20T01:04:44.147Z,20.60
2018-06-20T01:07:11.634Z,20.60
2018-06-20T01:09:39.126Z,20.60
2018-06-20T01:12:06.581Z,20.50
2018-06-20T01:14:34.724Z,20.50
2018-06-20T01:17:02.271Z,20.50
2018-06-20T01:19:29.741Z,20.50
2018-06-20T01:21:57.233Z,20.50
2018-06-20T01:24:24.839Z,20.50
2018-06-20T01:26:52.315Z,20.40
2018-06-20T01:29:19.817Z,20.40
2018-06-20T01:31:47.303Z,20.30
2018-06-20T01:34:14.793Z,20.30
2018-06-20T01:36:42.298Z,20.30
2018-06-20T01:39:10.710Z,20.30
2018-06-20T01:41:38.209Z,20.30
2018-06-20T01:44:05.877Z,20.30
2018-06-20T01:46:33.340Z,20.30
2018-06-20T01:49:00.806Z,20.30
2018-06-20T01:51:28.341Z,20.30
2018-06-20T01:53:55.818Z,20.20
2018-06-20T01:56:23.663Z,20.20
2018-06-20T01:58:51.130Z,20.10
2018-06-20T02:01:18.663Z,20.10
2018-06-20T02:03:46.139Z,20.10
2018-06-20T02:06:13.606Z,20.10
2018-06-20T02:08:41.123Z,20.10
2018-06-20T02:11:08.594Z,20.00
2018-06-20T02:13:36.098Z,20.00
2018-06-20T02:16:03.614Z,19.90
2018-06-20T02:18:31.107Z,19.80
2018-06-20T02:20:58.617Z,19.70
2018-06-20T02:23:26.139Z,19.80
2018-06-20T02:25:53.599Z,19.80
2018-06-20T02:28:21.102Z,19.80
2018-06-20T02:30:48.587Z,19.70
2018-06-20T02:33:16.115Z,19.60
2018-06-20T02:35:43.572Z,19.70
2018-06-20T02:38:11.063Z,19.80
2018-06-20T02:40:38.527Z,19.70
2018-06-20T02:43:06.029Z,19.80
2018-06-20T02:45:33.526Z,19.80
2018-06-20T02:48:01.015Z,19.80
2018-06-20T02:50:28.477Z,19.80
2018-06-20T02:52:55.982Z,19.90
2018-06-20T02:55:23.486Z,19.90
2018-06-20T02:57:50.998Z,19.90
2018-06-20T03:00:18.474Z,19.90
2018-06-20T03:02:45.956Z,19.90
2018-06-20T03:05:13.494Z,19.90
2018-06-20T03:07:41.006Z,19.90
2018-06-20T03:10:08.464Z,19.90
2018-06-20T03:12:35.954Z,19.90
2018-06-20T03:15:03.654Z,19.90
2018-06-20T03:17:31.125Z,19.80
2018-06-20T03:19:58.629Z,19.80
2018-06-20T03:22:26.137Z,19.80
2018-06-20T03:24:53.637Z,19.80
2018-06-20T03:27:21.158Z,19.70
2018-06-20T03:29:48.613Z,19.70
2018-06-20T03:32:16.061Z,19.70
2018-06-20T03:34:43.637Z,19.60
2018-06-20T03:37:11.120Z,19.60
2018-06-20T03:39:38.605Z,19.50
2018-06-20T03:42:06.102Z,19.50
2018-06-20T03:44:33.584Z,19.50
2018-06-20T03:47:01.106Z,19.40
2018-06-20T03:49:28.651Z,19.40
2018-06-20T03:51:56.157Z,19.40
2018-06-20T03:54:23.704Z,19.40
2018-06-20T03:56:51.203Z,19.40
2018-06-20T03:59:18.710Z,19.40
2018-06-20T04:01:46.220Z,19.40
2018-06-20T04:04:13.702Z,19.40
2018-06-20T04:06:41.172Z,19.50
2018-06-20T04:09:11.753Z,19.40
2018-06-20T04:11:39.218Z,19.40
2018-06-20T04:14:06.706Z,19.40
2018-06-20T04:16:34.200Z,19.50
2018-06-20T04:19:01.683Z,19.50
2018-06-20T04:21:29.163Z,19.50
2018-06-20T04:23:56.659Z,19.60
2018-06-20T04:26:24.160Z,19.60
2018-06-20T04:28:51.634Z,19.60
2018-06-20T04:31:19.142Z,19.60
2018-06-20T04:33:46.600Z,19.70
2018-06-20T04:36:14.098Z,19.70
2018-06-20T04:38:41.598Z,19.80
2018-06-20T04:41:09.095Z,19.80
2018-06-20T04:43:36.613Z,19.80
2018-06-20T04:46:04.106Z,19.80
2018-06-20T04:48:31.581Z,19.80
2018-06-20T04:50:59.104Z,19.80
2018-06-20T04:53:26.573Z,19.80
2018-06-20T04:55:54.030Z,19.90
2018-06-20T04:58:21.564Z,19.80
2018-06-20T05:00:49.077Z,19.90
2018-06-20T05:05:43.939Z,20.10
2018-06-20T05:08:11.440Z,20.10
2018-06-20T05:10:39.152Z,20.20
2018-06-20T05:13:06.695Z,20.30
2018-06-20T05:15:34.222Z,20.30
2018-06-20T05:18:01.834Z,20.40
2018-06-20T05:20:29.364Z,20.50
2018-06-20T05:22:56.873Z,20.50
2018-06-20T05:25:24.453Z,20.50
2018-06-20T05:27:51.975Z,20.40
2018-06-20T05:30:19.445Z,20.40
2018-06-20T05:32:46.916Z,20.40
2018-06-20T05:35:14.421Z,20.30
2018-06-20T05:37:41.891Z,20.40
2018-06-20T05:40:09.426Z,20.50
2018-06-20T05:42:36.887Z,20.60
2018-06-20T05:45:04.433Z,20.60
2018-06-20T05:47:31.918Z,20.70
2018-06-20T05:49:59.411Z,20.70
2018-06-20T05:52:26.893Z,20.60
2018-06-20T05:54:54.390Z,20.60
2018-06-20T05:57:21.864Z,20.60
2018-06-20T05:59:49.958Z,20.60
2018-06-20T06:02:17.473Z,20.70
2018-06-20T06:04:44.924Z,20.70
2018-06-20T06:07:12.416Z,20.70
2018-06-20T06:09:39.882Z,20.80
2018-06-20T06:12:07.456Z,20.80
2018-06-20T06:14:34.902Z,21.00
2018-06-20T06:17:02.497Z,21.10
2018-06-20T06:19:29.945Z,21.10
2018-06-20T06:21:57.420Z,21.10
2018-06-20T06:24:24.998Z,21.20
2018-06-20T06:26:52.474Z,21.20
2018-06-20T06:29:19.981Z,21.20
2018-06-20T06:31:47.454Z,21.20
2018-06-20T06:34:14.981Z,21.30
2018-06-20T06:36:42.458Z,21.30
2018-06-20T06:39:11.264Z,21.40
2018-06-20T06:41:38.912Z,21.40
2018-06-20T06:44:06.465Z,21.60
2018-06-20T06:46:33.964Z,21.60
2018-06-20T06:49:01.604Z,21.80
2018-06-20T06:51:29.129Z,21.80
2018-06-20T06:53:56.673Z,21.80
2018-06-20T06:56:24.221Z,21.80
2018-06-20T06:58:51.812Z,21.90
2018-06-20T07:01:19.322Z,22.00
2018-06-20T07:03:46.825Z,22.10
2018-06-20T07:06:14.305Z,22.10
2018-06-20T07:08:41.802Z,22.20
2018-06-20T07:11:09.328Z,22.10
2018-06-20T07:13:36.785Z,22.20
2018-06-20T07:16:04.283Z,22.20
2018-06-20T07:18:31.775Z,22.30
2018-06-20T07:20:59.301Z,22.40
2018-06-20T07:23:26.805Z,22.50
2018-06-20T07:25:54.305Z,22.60
2018-06-20T07:28:21.801Z,22.80
2018-06-20T07:30:49.316Z,22.80
2018-06-20T07:33:16.841Z,22.90
2018-06-20T07:35:44.343Z,22.90
2018-06-20T07:38:11.820Z,23.00
2018-06-20T07:40:39.362Z,23.00
2018-06-20T07:43:06.825Z,23.00
2018-06-20T07:45:34.350Z,23.10
2018-06-20T07:48:01.849Z,23.10
2018-06-20T07:50:29.411Z,23.20
2018-06-20T07:52:56.903Z,23.30
2018-06-20T07:55:24.462Z,23.30
2018-06-20T07:57:51.973Z,23.40
2018-06-20T08:00:25.058Z,23.40
2018-06-20T08:03:09.553Z,23.50
2018-06-20T08:05:42.723Z,23.60
2018-06-20T08:08:15.869Z,23.70
2018-06-20T08:12:52.918Z,23.80
2018-06-20T08:15:26.046Z,23.90
2018-06-20T08:17:59.233Z,24.00
2018-06-20T08:20:26.770Z,24.00
2018-06-20T08:22:54.341Z,24.00
2018-06-20T08:25:21.809Z,24.00
2018-06-20T08:27:49.303Z,24.10
2018-06-20T08:30:16.822Z,24.20
2018-06-20T08:32:44.328Z,24.40
2018-06-20T08:35:11.849Z,24.40
2018-06-20T08:37:39.341Z,24.50
2018-06-20T08:40:06.869Z,24.60
2018-06-20T08:42:34.496Z,24.80
2018-06-20T08:45:01.876Z,24.90
2018-06-20T08:47:29.373Z,24.90
2018-06-20T08:49:58.676Z,25.10
2018-06-20T08:52:26.172Z,25.10
2018-06-20T08:54:53.691Z,25.30
2018-06-20T08:57:21.230Z,25.50
2018-06-20T08:59:48.709Z,25.60
2018-06-20T09:02:17.977Z,25.60
2018-06-20T09:04:51.485Z,25.80
2018-06-20T09:07:24.722Z,25.80
2018-06-20T09:09:57.896Z,25.80
2018-06-20T09:12:31.080Z,25.90
2018-06-20T09:15:04.243Z,26.00
2018-06-20T09:17:37.195Z,26.10
2018-06-20T09:20:04.970Z,26.20
2018-06-20T09:22:32.511Z,26.30
2018-06-20T09:24:59.998Z,26.30
2018-06-20T09:27:27.508Z,26.50
2018-06-20T09:29:55.029Z,26.70
2018-06-20T09:32:22.504Z,26.80
2018-06-20T09:34:50.009Z,26.80
2018-06-20T09:37:17.493Z,26.90
2018-06-20T09:39:45.056Z,27.10
2018-06-20T09:42:12.496Z,27.20
2018-06-20T09:44:40.061Z,27.30
2018-06-20T09:47:07.529Z,27.50
2018-06-20T09:49:35.027Z,27.70
2018-06-20T09:52:02.553Z,27.80
2018-06-20T09:54:30.050Z,28.00
2018-06-20T09:56:57.556Z,28.20
2018-06-20T09:59:30.645Z,28.40
2018-06-20T10:02:03.789Z,28.40
2018-06-20T10:04:36.825Z,28.50
2018-06-20T10:07:09.896Z,28.60
2018-06-20T10:09:42.938Z,28.80
2018-06-20T10:12:12.152Z,28.80
2018-06-20T10:14:39.624Z,29.00
2018-06-20T10:17:07.069Z,29.00
2018-06-20T10:19:34.673Z,29.00
2018-06-20T10:22:02.188Z,29.10
2018-06-20T10:24:29.714Z,29.00
2018-06-20T10:26:57.217Z,29.00
2018-06-20T10:29:24.676Z,28.90
2018-06-20T10:31:52.165Z,28.80
2018-06-20T10:34:19.708Z,28.70
2018-06-20T10:36:47.193Z,28.60
2018-06-20T10:39:14.682Z,28.40
2018-06-20T10:41:42.189Z,28.30
2018-06-20T10:44:12.665Z,28.30
2018-06-20T10:46:46.216Z,28.30
2018-06-20T10:49:14.926Z,28.40
2018-06-20T10:51:42.765Z,28.40
2018-06-20T10:54:10.191Z,28.40
2018-06-20T10:56:43.189Z,28.60
2018-06-20T10:59:16.297Z,28.70
2018-06-20T11:01:49.513Z,28.70
2018-06-20T11:04:22.682Z,28.70
2018-06-20T11:06:55.949Z,28.70
2018-06-20T11:09:29.077Z,28.80
2018-06-20T11:12:02.273Z,29.00
2018-06-20T11:14:29.794Z,29.10
2018-06-20T11:16:57.355Z,29.20
2018-06-20T11:19:24.890Z,29.30
2018-06-20T11:21:52.401Z,29.50
2018-06-20T11:24:19.969Z,29.60
2018-06-20T11:26:50.238Z,29.70
2018-06-20T11:29:17.823Z,30.00
2018-06-20T11:31:45.271Z,30.20
2018-06-20T11:34:14.843Z,30.30
2018-06-20T11:36:42.321Z,30.40
2018-06-20T11:39:11.499Z,30.60
2018-06-20T11:41:39.130Z,30.70
2018-06-20T11:46:39.615Z,31.00
2018-06-20T11:49:07.143Z,31.10
2018-06-20T11:51:37.437Z,31.20
2018-06-20T11:54:07.262Z,31.30
2018-06-20T11:56:36.458Z,31.30
2018-06-20T11:59:10.205Z,31.40
2018-06-20T12:04:17.933Z,31.60
2018-06-20T12:06:51.088Z,31.70
2018-06-20T12:09:25.454Z,31.80
2018-06-20T12:11:58.598Z,31.80
2018-06-20T12:14:31.778Z,32.00
2018-06-20T12:17:01.569Z,32.20
2018-06-20T12:19:34.620Z,32.30
2018-06-20T12:22:08.745Z,32.30
2018-06-20T12:24:41.888Z,32.20
2018-06-20T12:27:16.173Z,32.20
2018-06-20T12:30:02.547Z,32.30
2018-06-20T12:32:35.733Z,32.30
2018-06-20T12:35:08.825Z,32.50
2018-06-20T12:37:42.023Z,32.60
2018-06-20T12:40:15.974Z,32.50
2018-06-20T12:44:50.253Z,32.50
2018-06-20T12:47:20.735Z,32.60
2018-06-20T12:49:52.557Z,32.80
2018-06-20T12:52:20.049Z,32.90
2018-06-20T12:54:47.576Z,33.00
2018-06-20T12:57:15.134Z,33.00
2018-06-20T12:59:42.618Z,33.20
2018-06-20T13:02:10.121Z,33.20
2018-06-20T13:04:37.620Z,33.10
2018-06-20T13:07:05.154Z,33.20
2018-06-20T13:09:32.678Z,33.20
2018-06-20T13:12:00.145Z,33.10
2018-06-20T13:14:27.687Z,33.20
2018-06-20T13:16:55.501Z,33.40
2018-06-20T13:19:23.039Z,33.30
2018-06-20T13:21:50.519Z,33.40
2018-06-20T13:24:18.017Z,33.40
2018-06-20T13:26:45.595Z,33.70
2018-06-20T13:29:13.057Z,33.70
2018-06-20T13:31:46.227Z,33.30
2018-06-20T13:34:19.399Z,33.20
2018-06-20T13:36:52.545Z,33.10
2018-06-20T13:39:25.738Z,33.00
2018-06-20T13:41:59.914Z,33.10
2018-06-20T13:44:28.282Z,33.20
2018-06-20T13:47:01.448Z,33.30
2018-06-20T13:49:28.954Z,33.30
2018-06-20T13:51:56.532Z,33.10
2018-06-20T13:54:24.084Z,33.10
2018-06-20T13:56:52.154Z,33.10
2018-06-20T13:59:19.667Z,33.40
2018-06-20T14:01:47.202Z,33.40
2018-06-20T14:04:14.715Z,33.50
2018-06-20T14:06:42.336Z,33.60
2018-06-20T14:09:10.694Z,33.70
2018-06-20T14:11:38.374Z,33.70
2018-06-20T14:14:05.953Z,33.60
2018-06-20T14:16:33.845Z,33.60
2018-06-20T14:19:01.406Z,33.60
2018-06-20T14:21:34.990Z,33.70
2018-06-20T14:24:02.698Z,33.60
2018-06-20T14:26:30.180Z,33.50
2018-06-20T14:28:57.678Z,33.30
2018-06-20T14:31:30.765Z,33.50
2018-06-20T14:34:04.588Z,33.60
2018-06-20T14:36:37.542Z,33.50
2018-06-20T14:39:13.660Z,33.20
2018-06-20T14:41:47.366Z,33.10
2018-06-20T14:44:14.982Z,33.10
2018-06-20T14:46:43.453Z,33.10
2018-06-20T14:49:11.029Z,33.20
2018-06-20T14:51:38.593Z,33.30
2018-06-20T14:54:06.183Z,33.40
2018-06-20T14:56:33.729Z,33.50
2018-06-20T14:59:01.230Z,33.50
